createdAt,value
2018-04-11T00:00:56.509Z,96.80
2018-04-11T00:01:56.570Z,97.17
2018-04-11T00:02:56.628Z,97.17
2018-04-11T00:03:56.685Z,97.17
2018-04-11T00:04:56.745Z,97.56
2018-04-11T00:05:56.803Z,97.36
2018-04-11T00:06:56.862Z,97.65
2018-04-11T00:07:56.919Z,96.98
2018-04-11T00:08:56.978Z,96.98
2018-04-11T00:09:57.038Z,97.08
2018-04-11T00:10:57.097Z,96.60
2018-04-11T00:11:57.157Z,96.60
2018-04-11T00:12:57.216Z,96.98
2018-04-11T00:13:57.277Z,96.89
2018-04-11T00:14:57.336Z,97.27
2018-04-11T00:15:57.441Z,97.46
2018-04-11T00:16:57.450Z,97.36
2018-04-11T00:17:57.510Z,97.56
2018-04-11T00:18:57.569Z,97.65
2018-04-11T00:19:57.628Z,97.46
2018-04-11T00:20:57.687Z,97.56
2018-04-11T00:21:57.747Z,97.36
2018-04-11T00:22:57.804Z,97.56
2018-04-11T00:23:57.864Z,97.46
2018-04-11T00:24:57.922Z,97.56
2018-04-11T00:25:57.982Z,97.65
2018-04-11T00:26:58.040Z,97.22
2018-04-11T00:27:58.102Z,97.56
2018-04-11T00:28:58.160Z,97.60
2018-04-11T00:29:58.216Z,96.60
2018-04-11T00:30:58.272Z,97.65
2018-04-11T00:31:58.331Z,96.89
2018-04-11T00:32:58.389Z,96.98
2018-04-11T00:33:58.447Z,96.80
2018-04-11T00:34:58.505Z,96.89
2018-04-11T00:35:58.564Z,97.08
2018-04-11T00:36:58.622Z,97.27
2018-04-11T00:37:58.680Z,97.17
2018-04-11T00:38:58.739Z,97.46
2018-04-11T00:39:58.798Z,97.46
2018-04-11T00:40:58.858Z,97.36
2018-04-11T00:41:58.921Z,96.51
2018-04-11T00:42:58.975Z,97.65
2018-04-11T00:43:59.033Z,97.17
2018-04-11T00:44:59.244Z,96.80
2018-04-11T00:45:59.150Z,96.80
2018-04-11T00:46:59.214Z,96.12
2018-04-11T00:47:59.270Z,96.03
2018-04-11T00:48:59.328Z,96.22
2018-04-11T00:49:59.388Z,96.60
2018-04-11T00:50:59.445Z,96.60
2018-04-11T00:51:59.505Z,97.65
2018-04-11T00:52:59.580Z,97.08
2018-04-11T00:53:59.624Z,97.65
2018-04-11T00:54:59.681Z,96.89
2018-04-11T00:55:59.742Z,97.84
2018-04-11T00:56:59.799Z,97.84
2018-04-11T00:57:59.873Z,97.84
2018-04-11T00:58:59.916Z,97.94
2018-04-11T00:59:59.975Z,97.94
2018-04-11T01:01:00.037Z,97.36
2018-04-11T01:02:00.093Z,98.13
2018-04-11T01:03:00.150Z,97.27
2018-04-11T01:04:00.209Z,98.03
2018-04-11T01:05:00.269Z,97.84
2018-04-11T01:06:00.329Z,98.03
2018-04-11T01:07:00.385Z,97.46
2018-04-11T01:08:00.444Z,96.89
2018-04-11T01:09:00.512Z,97.46
2018-04-11T01:10:00.562Z,97.27
2018-04-11T01:11:00.620Z,97.27
2018-04-11T01:12:00.679Z,97.36
2018-04-11T01:13:00.737Z,97.46
2018-04-11T01:14:00.798Z,97.36
2018-04-11T01:15:00.855Z,97.46
2018-04-11T01:16:00.914Z,97.46
2018-04-11T01:17:00.974Z,97.27
2018-04-11T01:18:01.031Z,97.36
2018-04-11T01:19:01.090Z,97.08
2018-04-11T01:20:01.149Z,97.56
2018-04-11T01:21:01.209Z,96.98
2018-04-11T01:22:01.268Z,97.56
2018-04-11T01:23:01.327Z,97.17
2018-04-11T01:24:01.386Z,97.75
2018-04-11T01:25:01.444Z,97.36
2018-04-11T01:26:01.505Z,97.46
2018-04-11T01:27:01.560Z,98.32
2018-04-11T01:28:01.621Z,98.08
2018-04-11T01:29:01.677Z,98.22
2018-04-11T01:30:01.738Z,98.18
2018-04-11T01:31:01.796Z,98.65
2018-04-11T01:32:01.865Z,98.65
2018-04-11T01:33:01.914Z,99.13
2018-04-11T01:34:01.973Z,99.13
2018-04-11T01:35:02.030Z,98.84
2018-04-11T01:36:02.090Z,99.13
2018-04-11T01:37:02.150Z,98.94
2018-04-11T01:38:02.212Z,99.79
2018-04-11T01:39:02.270Z,99.13
2018-04-11T01:40:02.324Z,99.41
2018-04-11T01:41:02.383Z,98.84
2018-04-11T01:42:02.441Z,99.03
2018-04-11T01:43:02.500Z,99.22
2018-04-11T01:44:02.558Z,98.18
2018-04-11T01:45:02.616Z,97.99
2018-04-11T01:46:02.675Z,98.27
2018-04-11T01:47:02.737Z,98.27
2018-04-11T01:48:02.793Z,97.89
2018-04-11T01:49:02.851Z,99.03
2018-04-11T01:50:02.911Z,99.22
2018-04-11T01:51:02.969Z,99.60
2018-04-11T01:52:03.027Z,99.22
2018-04-11T01:53:03.088Z,99.41
2018-04-11T01:54:03.145Z,99.98
2018-04-11T01:55:03.205Z,99.98
2018-04-11T01:56:03.263Z,99.99
2018-04-11T01:57:03.325Z,99.89
2018-04-11T01:58:03.630Z,99.98
2018-04-11T01:59:03.439Z,99.99
2018-04-11T02:00:03.498Z,99.99
2018-04-11T02:01:03.558Z,99.99
2018-04-11T02:02:03.615Z,99.69
2018-04-11T02:03:03.674Z,99.99
2018-04-11T02:04:03.734Z,99.69
2018-04-11T02:05:03.791Z,99.99
2018-04-11T02:06:03.851Z,99.99
2018-04-11T02:07:03.909Z,99.99
2018-04-11T02:08:03.967Z,99.99
2018-04-11T02:09:04.027Z,99.99
2018-04-11T02:10:04.086Z,99.98
2018-04-11T02:11:04.143Z,99.89
2018-04-11T02:12:04.201Z,99.79
2018-04-11T02:13:04.259Z,99.99
2018-04-11T02:14:04.318Z,99.99
2018-04-11T02:15:04.376Z,99.99
2018-04-11T02:16:04.435Z,99.99
2018-04-11T02:17:04.493Z,99.89
2018-04-11T02:18:04.552Z,99.99
2018-04-11T02:19:04.610Z,99.99
2018-04-11T02:20:04.674Z,99.99
2018-04-11T02:21:04.726Z,99.99
2018-04-11T02:22:04.784Z,99.99
2018-04-11T02:23:04.849Z,99.99
2018-04-11T02:24:04.917Z,99.99
2018-04-11T02:25:05.581Z,99.99
2018-04-11T02:26:05.552Z,99.99
2018-04-11T02:27:05.631Z,99.99
2018-04-11T02:28:05.469Z,99.99
2018-04-11T02:29:05.685Z,99.99
2018-04-11T02:30:05.268Z,99.99
2018-04-11T02:31:05.311Z,99.99
2018-04-11T02:32:05.388Z,99.99
2018-04-11T02:33:05.579Z,99.99
2018-04-11T02:34:05.489Z,99.99
2018-04-11T02:35:05.547Z,99.99
2018-04-11T02:36:06.084Z,99.99
2018-04-11T02:37:06.272Z,99.99
2018-04-11T02:38:06.256Z,99.99
2018-04-11T02:39:05.880Z,99.99
2018-04-11T02:40:05.839Z,99.99
2018-04-11T02:41:06.509Z,99.99
2018-04-11T02:42:06.505Z,99.99
2018-04-11T02:43:06.015Z,99.99
2018-04-11T02:44:06.078Z,99.99
2018-04-11T02:45:06.132Z,99.99
2018-04-11T02:46:06.191Z,99.99
2018-04-11T02:47:06.258Z,99.99
2018-04-11T02:48:06.342Z,99.99
2018-04-11T02:49:06.365Z,99.99
2018-04-11T02:50:06.429Z,99.99
2018-04-11T02:51:06.481Z,99.99
2018-04-11T02:52:06.538Z,99.99
2018-04-11T02:53:06.600Z,99.99
2018-04-11T02:54:06.656Z,99.99
2018-04-11T02:55:06.717Z,99.99
2018-04-11T02:56:06.799Z,99.99
2018-04-11T02:57:06.833Z,99.99
2018-04-11T02:58:06.890Z,99.99
2018-04-11T02:59:06.947Z,99.99
2018-04-11T03:00:07.007Z,99.99
2018-04-11T03:01:07.064Z,99.99
2018-04-11T03:02:07.126Z,99.99
2018-04-11T03:03:07.184Z,99.99
2018-04-11T03:04:07.241Z,99.99
2018-04-11T03:05:07.299Z,99.99
2018-04-11T03:06:07.361Z,99.99
2018-04-11T03:07:07.416Z,99.99
2018-04-11T03:08:07.628Z,99.99
2018-04-11T03:09:07.535Z,99.99
2018-04-11T03:10:07.602Z,99.99
2018-04-11T03:11:07.651Z,99.99
2018-04-11T03:12:07.708Z,99.99
2018-04-11T03:13:07.768Z,99.99
2018-04-11T03:14:07.826Z,99.99
2018-04-11T03:15:07.885Z,99.99
2018-04-11T03:16:07.943Z,99.99
2018-04-11T03:17:08.002Z,99.99
2018-04-11T03:18:08.061Z,99.99
2018-04-11T03:19:08.119Z,99.99
2018-04-11T03:20:08.178Z,99.99
2018-04-11T03:21:08.235Z,99.99
2018-04-11T03:22:08.294Z,99.99
2018-04-11T03:23:08.351Z,99.99
2018-04-11T03:24:08.410Z,99.99
2018-04-11T03:25:08.469Z,99.99
2018-04-11T03:26:08.540Z,99.99
2018-04-11T03:27:08.583Z,99.99
2018-04-11T03:28:08.642Z,99.99
2018-04-11T03:29:08.701Z,99.99
2018-04-11T03:30:08.763Z,99.99
2018-04-11T03:31:08.818Z,99.99
2018-04-11T03:32:08.875Z,99.99
2018-04-11T03:33:08.934Z,99.99
2018-04-11T03:34:08.993Z,99.99
2018-04-11T03:35:09.201Z,99.99
2018-04-11T03:36:09.109Z,99.99
2018-04-11T03:37:09.167Z,99.99
2018-04-11T03:38:09.227Z,99.99
2018-04-11T03:39:09.283Z,99.99
2018-04-11T03:40:09.345Z,99.99
2018-04-11T03:41:09.400Z,99.99
2018-04-11T03:42:09.459Z,99.99
2018-04-11T03:43:09.517Z,99.99
2018-04-11T03:44:09.575Z,99.99
2018-04-11T03:45:09.634Z,99.99
2018-04-11T03:46:09.692Z,99.99
2018-04-11T03:47:09.752Z,99.99
2018-04-11T03:48:09.808Z,99.99
2018-04-11T03:49:09.866Z,99.99
2018-04-11T03:50:09.925Z,99.99
2018-04-11T03:51:09.983Z,99.99
2018-04-11T03:52:10.042Z,99.99
2018-04-11T03:53:10.132Z,99.99
2018-04-11T03:54:10.159Z,99.99
2018-04-11T03:55:10.214Z,99.99
2018-04-11T03:56:10.275Z,99.99
2018-04-11T03:57:10.332Z,99.99
2018-04-11T03:58:10.540Z,99.99
2018-04-11T03:59:10.458Z,99.99
2018-04-11T04:00:10.506Z,99.99
2018-04-11T04:01:10.567Z,99.99
2018-04-11T04:02:10.625Z,99.99
2018-04-11T04:03:10.930Z,99.99
2018-04-11T04:04:10.791Z,99.99
2018-04-11T04:05:10.798Z,99.99
2018-04-11T04:06:10.859Z,99.99
2018-04-11T04:07:10.958Z,99.99
2018-04-11T04:08:11.019Z,99.99
2018-04-11T04:09:11.127Z,99.99
2018-04-11T04:10:11.144Z,99.99
2018-04-11T04:11:11.203Z,99.99
2018-04-11T04:12:11.258Z,99.99
2018-04-11T04:13:11.263Z,99.99
2018-04-11T04:14:11.335Z,99.99
2018-04-11T04:15:11.377Z,99.99
2018-04-11T04:16:11.438Z,99.99
2018-04-11T04:17:11.496Z,99.99
2018-04-11T04:18:11.554Z,99.99
2018-04-11T04:19:11.643Z,99.99
2018-04-11T04:20:11.729Z,99.99
2018-04-11T04:21:11.736Z,99.99
2018-04-11T04:22:11.787Z,99.99
2018-04-11T04:23:11.847Z,99.99
2018-04-11T04:24:11.913Z,99.99
2018-04-11T04:25:12.407Z,99.99
2018-04-11T04:26:12.465Z,99.99
2018-04-11T04:27:12.090Z,99.99
2018-04-11T04:28:12.155Z,99.99
2018-04-11T04:29:12.193Z,99.99
2018-04-11T04:30:12.252Z,99.99
2018-04-11T04:31:12.328Z,99.99
2018-04-11T04:32:12.366Z,99.99
2018-04-11T04:33:12.425Z,99.99
2018-04-11T04:34:12.484Z,99.99
2018-04-11T04:35:12.541Z,99.99
2018-04-11T04:36:12.598Z,99.99
2018-04-11T04:37:12.656Z,99.99
2018-04-11T04:38:12.714Z,99.99
2018-04-11T04:39:12.773Z,99.99
2018-04-11T04:40:12.830Z,99.99
2018-04-11T04:41:12.889Z,99.99
2018-04-11T04:42:12.948Z,99.99
2018-04-11T04:43:13.008Z,99.99
2018-04-11T04:44:13.064Z,99.99
2018-04-11T04:45:13.124Z,99.99
2018-04-11T04:46:13.183Z,99.99
2018-04-11T04:47:13.237Z,99.99
2018-04-11T04:48:13.297Z,99.99
2018-04-11T04:49:13.605Z,99.99
2018-04-11T04:50:13.413Z,99.99
2018-04-11T04:51:13.510Z,99.99
2018-04-11T04:52:13.533Z,99.99
2018-04-11T04:53:13.588Z,99.99
2018-04-11T04:54:13.646Z,99.99
2018-04-11T04:55:13.706Z,99.99
2018-04-11T04:56:13.760Z,99.99
2018-04-11T04:57:13.820Z,99.99
2018-04-11T04:58:13.879Z,99.99
2018-04-11T04:59:13.936Z,99.99
2018-04-11T05:00:13.993Z,99.99
2018-04-11T05:01:14.053Z,99.99
2018-04-11T05:02:14.110Z,99.99
2018-04-11T05:03:14.169Z,99.99
2018-04-11T05:04:14.226Z,99.99
2018-04-11T05:05:14.369Z,99.99
2018-04-11T05:06:14.374Z,99.99
2018-04-11T05:07:14.437Z,99.99
2018-04-11T05:08:14.460Z,99.99
2018-04-11T05:09:14.549Z,99.99
2018-04-11T05:10:14.607Z,99.99
2018-04-11T05:11:14.864Z,99.99
2018-04-11T05:12:14.723Z,99.99
2018-04-11T05:13:14.783Z,99.99
2018-04-11T05:14:14.831Z,99.99
2018-04-11T05:15:14.868Z,99.99
2018-04-11T05:16:14.927Z,99.99
2018-04-11T05:17:15.322Z,99.99
2018-04-11T05:18:15.089Z,99.99
2018-04-11T05:19:15.101Z,99.99
2018-04-11T05:20:15.190Z,99.99
2018-04-11T05:21:15.248Z,99.99
2018-04-11T05:22:15.278Z,99.99
2018-04-11T05:23:15.334Z,99.99
2018-04-11T05:24:15.769Z,99.99
2018-04-11T05:25:15.456Z,99.99
2018-04-11T05:26:15.915Z,99.99
2018-04-11T05:27:15.627Z,99.99
2018-04-11T05:28:15.710Z,99.99
2018-04-11T05:29:15.686Z,99.99
2018-04-11T05:30:16.312Z,99.99
2018-04-11T05:31:15.836Z,99.99
2018-04-11T05:32:16.095Z,99.99
2018-04-11T05:33:15.934Z,99.99
2018-04-11T05:34:15.973Z,99.99
2018-04-11T05:35:16.083Z,99.99
2018-04-11T05:36:16.091Z,99.99
2018-04-11T05:37:16.757Z,99.99
2018-04-11T05:38:16.208Z,99.99
2018-04-11T05:39:16.264Z,99.99
2018-04-11T05:40:16.327Z,99.99
2018-04-11T05:41:16.383Z,99.99
2018-04-11T05:42:16.452Z,99.99
2018-04-11T05:43:16.529Z,99.99
2018-04-11T05:44:16.557Z,99.99
2018-04-11T05:45:16.615Z,99.99
2018-04-11T05:46:16.756Z,99.99
2018-04-11T05:47:16.731Z,99.99
2018-04-11T05:48:16.792Z,99.99
2018-04-11T05:49:16.847Z,99.99
2018-04-11T05:50:16.906Z,99.99
2018-04-11T05:51:16.965Z,99.99
2018-04-11T05:52:17.022Z,99.99
2018-04-11T05:53:17.113Z,99.99
2018-04-11T05:54:17.184Z,99.99
2018-04-11T05:55:17.196Z,99.99
2018-04-11T05:56:17.292Z,99.99
2018-04-11T05:57:17.316Z,99.99
2018-04-11T05:58:17.461Z,99.99
2018-04-11T05:59:17.461Z,99.99
2018-04-11T06:00:17.522Z,99.99
2018-04-11T06:01:17.546Z,99.99
2018-04-11T06:02:17.606Z,99.99
2018-04-11T06:03:17.664Z,99.99
2018-04-11T06:04:17.722Z,99.99
2018-04-11T06:05:17.781Z,99.99
2018-04-11T06:06:17.841Z,99.99
2018-04-11T06:07:17.897Z,99.99
2018-04-11T06:08:17.955Z,99.99
2018-04-11T06:09:18.014Z,99.99
2018-04-11T06:10:18.072Z,99.99
2018-04-11T06:11:18.134Z,99.99
2018-04-11T06:12:18.193Z,99.99
2018-04-11T06:13:18.249Z,99.99
2018-04-11T06:14:18.557Z,99.99
2018-04-11T06:15:18.363Z,99.99
2018-04-11T06:16:18.423Z,99.99
2018-04-11T06:17:18.479Z,99.99
2018-04-11T06:18:18.540Z,99.99
2018-04-11T06:19:18.596Z,99.99
2018-04-11T06:20:18.688Z,99.99
2018-04-11T06:21:18.748Z,99.99
2018-04-11T06:22:18.808Z,99.99
2018-04-11T06:23:18.832Z,99.99
2018-04-11T06:24:18.889Z,99.99
2018-04-11T06:25:18.948Z,99.99
2018-04-11T06:26:19.024Z,99.99
2018-04-11T06:27:19.092Z,99.99
2018-04-11T06:28:19.146Z,99.99
2018-04-11T06:29:19.207Z,99.99
2018-04-11T06:30:19.467Z,99.99
2018-04-11T06:31:19.326Z,99.99
2018-04-11T06:32:19.371Z,99.99
2018-04-11T06:33:19.415Z,99.99
2018-04-11T06:34:19.474Z,99.99
2018-04-11T06:35:19.532Z,99.99
2018-04-11T06:36:19.591Z,99.99
2018-04-11T06:37:19.652Z,99.99
2018-04-11T06:38:19.729Z,99.99
2018-04-11T06:39:19.800Z,99.99
2018-04-11T06:40:19.825Z,99.99
2018-04-11T06:41:19.884Z,99.99
2018-04-11T06:42:19.941Z,99.99
2018-04-11T06:43:20.354Z,99.99
2018-04-11T06:44:20.059Z,99.99
2018-04-11T06:45:20.132Z,99.99
2018-04-11T06:46:20.210Z,99.99
2018-04-11T06:47:20.275Z,99.99
2018-04-11T06:48:20.325Z,99.99
2018-04-11T06:49:20.441Z,99.99
2018-04-11T06:50:20.446Z,99.99
2018-04-11T06:51:20.505Z,99.99
2018-04-11T06:52:20.556Z,99.99
2018-04-11T06:53:20.623Z,99.99
2018-04-11T06:54:20.650Z,99.99
2018-04-11T06:55:20.787Z,99.99
2018-04-11T06:56:20.767Z,99.37
2018-04-11T06:57:20.829Z,99.18
2018-04-11T06:58:20.955Z,99.08
2018-04-11T06:59:20.976Z,98.89
2018-04-11T07:00:21.029Z,98.79
2018-04-11T07:01:21.095Z,99.27
2018-04-11T07:02:21.160Z,98.99
2018-04-11T07:03:21.184Z,99.55
2018-04-11T07:04:21.239Z,98.99
2018-04-11T07:05:21.300Z,98.85
2018-04-11T07:06:21.387Z,98.60
2018-04-11T07:07:21.417Z,98.65
2018-04-11T07:08:21.478Z,99.04
2018-04-11T07:09:21.537Z,98.94
2018-04-11T07:10:21.597Z,97.22
2018-04-11T07:11:21.674Z,97.61
2018-04-11T07:12:21.715Z,97.99
2018-04-11T07:13:21.776Z,97.51
2018-04-11T07:14:21.836Z,97.17
2018-04-11T07:15:21.919Z,97.32
2018-04-11T07:16:21.976Z,98.27
2018-04-11T07:17:22.016Z,97.51
2018-04-11T07:18:22.075Z,98.08
2018-04-11T07:19:22.135Z,98.46
2018-04-11T07:20:22.204Z,97.89
2018-04-11T07:21:22.585Z,96.94
2018-04-11T07:22:22.319Z,97.41
2018-04-11T07:23:22.393Z,98.36
2018-04-11T07:24:22.431Z,97.41
2018-04-11T07:25:22.867Z,97.13
2018-04-11T07:26:22.551Z,97.13
2018-04-11T07:27:22.609Z,97.32
2018-04-11T07:28:22.669Z,97.41
2018-04-11T07:29:22.729Z,97.13
2018-04-11T07:30:23.692Z,97.51
2018-04-11T07:31:22.849Z,98.08
2018-04-11T07:32:22.910Z,97.89
2018-04-11T07:33:22.969Z,97.80
2018-04-11T07:34:23.028Z,97.99
2018-04-11T07:35:23.092Z,97.80
2018-04-11T07:36:23.147Z,98.36
2018-04-11T07:37:23.207Z,97.41
2018-04-11T07:38:23.266Z,97.51
2018-04-11T07:39:23.326Z,97.41
2018-04-11T07:40:23.415Z,97.22
2018-04-11T07:41:23.523Z,97.41
2018-04-11T07:42:23.507Z,96.65
2018-04-11T07:43:24.091Z,97.41
2018-04-11T07:44:23.624Z,96.84
2018-04-11T07:45:23.684Z,97.03
2018-04-11T07:46:23.744Z,97.32
2018-04-11T07:47:23.803Z,97.22
2018-04-11T07:48:23.863Z,97.13
2018-04-11T07:49:23.923Z,97.22
2018-04-11T07:50:23.982Z,96.94
2018-04-11T07:51:24.041Z,97.41
2018-04-11T07:52:24.102Z,96.94
2018-04-11T07:53:24.161Z,96.46
2018-04-11T07:54:24.221Z,97.03
2018-04-11T07:55:24.279Z,97.61
2018-04-11T07:56:24.339Z,96.56
2018-04-11T07:57:24.400Z,96.65
2018-04-11T07:58:24.460Z,96.65
2018-04-11T07:59:24.517Z,96.84
2018-04-11T08:00:24.579Z,96.65
2018-04-11T08:01:24.639Z,97.08
2018-04-11T08:02:24.699Z,96.70
2018-04-11T08:03:24.802Z,95.84
2018-04-11T08:04:24.819Z,95.84
2018-04-11T08:05:24.877Z,95.75
2018-04-11T08:06:24.938Z,95.56
2018-04-11T08:07:24.997Z,95.65
2018-04-11T08:08:25.057Z,95.84
2018-04-11T08:09:25.116Z,96.51
2018-04-11T08:10:25.178Z,96.17
2018-04-11T08:11:25.236Z,96.36
2018-04-11T08:12:25.295Z,96.17
2018-04-11T08:13:25.355Z,96.70
2018-04-11T08:14:25.416Z,96.94
2018-04-11T08:15:25.474Z,96.89
2018-04-11T08:16:25.533Z,96.84
2018-04-11T08:17:25.611Z,97.03
2018-04-11T08:18:25.654Z,97.22
2018-04-11T08:19:25.712Z,97.13
2018-04-11T08:20:25.773Z,97.66
2018-04-11T08:21:25.834Z,96.98
2018-04-11T08:22:25.895Z,96.89
2018-04-11T08:23:25.952Z,96.70
2018-04-11T08:24:26.013Z,96.80
2018-04-11T08:25:26.072Z,96.13
2018-04-11T08:26:26.132Z,96.41
2018-04-11T08:27:26.196Z,96.61
2018-04-11T08:28:26.250Z,96.32
2018-04-11T08:29:26.319Z,96.03
2018-04-11T08:30:26.370Z,95.84
2018-04-11T08:31:26.440Z,95.75
2018-04-11T08:32:26.512Z,95.94
2018-04-11T08:33:26.549Z,95.75
2018-04-11T08:34:26.610Z,95.65
2018-04-11T08:35:26.670Z,95.46
2018-04-11T08:36:26.728Z,95.17
2018-04-11T08:37:26.788Z,94.89
2018-04-11T08:38:26.849Z,94.98
2018-04-11T08:39:26.909Z,94.89
2018-04-11T08:40:27.001Z,94.51
2018-04-11T08:41:27.064Z,94.79
2018-04-11T08:42:27.088Z,94.32
2018-04-11T08:43:27.181Z,94.70
2018-04-11T08:44:27.243Z,94.51
2018-04-11T08:45:27.268Z,94.22
2018-04-11T08:46:27.327Z,94.60
2018-04-11T08:47:27.388Z,94.12
2018-04-11T08:48:27.448Z,93.93
2018-04-11T08:49:27.508Z,93.98
2018-04-11T08:50:27.567Z,94.17
2018-04-11T08:51:27.627Z,93.60
2018-04-11T08:52:27.691Z,93.41
2018-04-11T08:53:27.749Z,93.51
2018-04-11T08:54:27.809Z,93.22
2018-04-11T08:55:27.873Z,92.83
2018-04-11T08:56:27.929Z,92.83
2018-04-11T08:57:27.989Z,92.83
2018-04-11T08:58:28.053Z,93.02
2018-04-11T08:59:28.109Z,92.17
2018-04-11T09:00:28.172Z,92.83
2018-04-11T09:01:28.232Z,92.17
2018-04-11T09:02:28.318Z,91.88
2018-04-11T09:03:28.353Z,91.98
2018-04-11T09:04:28.414Z,92.93
2018-04-11T09:05:28.529Z,92.55
2018-04-11T09:06:28.537Z,91.83
2018-04-11T09:07:28.595Z,91.83
2018-04-11T09:08:28.656Z,91.60
2018-04-11T09:09:28.716Z,91.60
2018-04-11T09:10:28.777Z,92.12
2018-04-11T09:11:28.840Z,91.64
2018-04-11T09:12:28.903Z,92.02
2018-04-11T09:13:28.960Z,91.36
2018-04-11T09:14:29.023Z,90.88
2018-04-11T09:15:29.084Z,89.54
2018-04-11T09:16:29.142Z,89.83
2018-04-11T09:17:29.205Z,89.25
2018-04-11T09:18:29.265Z,89.39
2018-04-11T09:19:29.329Z,88.54
2018-04-11T09:20:30.046Z,88.06
2018-04-11T09:21:29.452Z,88.44
2018-04-11T09:22:29.513Z,88.63
2018-04-11T09:23:29.571Z,88.63
2018-04-11T09:24:29.634Z,89.20
2018-04-11T09:25:29.695Z,88.73
2018-04-11T09:26:29.757Z,88.82
2018-04-11T09:27:29.818Z,89.30
2018-04-11T09:28:29.879Z,89.11
2018-04-11T09:29:29.956Z,88.54
2018-04-11T09:30:30.003Z,87.77
2018-04-11T09:31:30.063Z,88.73
2018-04-11T09:32:30.124Z,88.73
2018-04-11T09:33:30.187Z,88.59
2018-04-11T09:34:30.248Z,89.25
2018-04-11T09:35:30.308Z,89.64
2018-04-11T09:36:30.615Z,89.73
2018-04-11T09:37:31.045Z,89.73
2018-04-11T09:38:30.494Z,89.45
2018-04-11T09:39:31.315Z,90.50
2018-04-11T09:40:30.618Z,89.54
2018-04-11T09:41:30.679Z,89.83
2018-04-11T09:42:30.741Z,89.54
2018-04-11T09:43:30.801Z,90.21
2018-04-11T09:44:30.864Z,89.83
2018-04-11T09:45:30.923Z,90.21
2018-04-11T09:46:30.987Z,90.02
2018-04-11T09:47:31.047Z,89.83
2018-04-11T09:48:31.109Z,89.11
2018-04-11T09:49:31.169Z,89.73
2018-04-11T09:50:31.231Z,89.20
2018-04-11T09:51:31.294Z,89.30
2018-04-11T09:52:31.354Z,89.01
2018-04-11T09:53:31.416Z,89.59
2018-04-11T09:54:31.478Z,89.11
2018-04-11T09:55:31.542Z,88.44
2018-04-11T09:56:31.602Z,88.44
2018-04-11T09:57:31.663Z,87.72
2018-04-11T09:58:31.749Z,87.72
2018-04-11T09:59:31.785Z,86.86
2018-04-11T10:00:32.166Z,86.96
2018-04-11T10:01:31.909Z,86.47
2018-04-11T10:02:31.972Z,85.38
2018-04-11T10:03:32.032Z,84.99
2018-04-11T10:04:32.096Z,85.28
2018-04-11T10:05:32.157Z,83.75
2018-04-11T10:06:32.220Z,84.23
2018-04-11T10:07:32.281Z,84.70
2018-04-11T10:08:32.347Z,84.55
2018-04-11T10:09:32.405Z,83.89
2018-04-11T10:10:32.468Z,84.08
2018-04-11T10:11:32.531Z,82.40
2018-04-11T10:12:32.601Z,80.77
2018-04-11T10:13:32.659Z,80.52
2018-04-11T10:14:32.719Z,79.66
2018-04-11T10:15:32.785Z,78.80
2018-04-11T10:16:32.847Z,78.99
2018-04-11T10:17:32.909Z,78.99
2018-04-11T10:18:32.974Z,78.51
2018-04-11T10:19:33.037Z,77.55
2018-04-11T10:20:33.736Z,77.59
2018-04-11T10:21:33.835Z,77.40
2018-04-11T10:22:33.863Z,76.64
2018-04-11T10:23:33.294Z,77.31
2018-04-11T10:24:33.358Z,77.46
2018-04-11T10:25:33.436Z,77.65
2018-04-11T10:26:33.487Z,78.28
2018-04-11T10:27:33.551Z,78.13
2018-04-11T10:28:33.623Z,77.55
2018-04-11T10:29:33.682Z,78.09
2018-04-11T10:30:33.748Z,78.89
2018-04-11T10:31:33.861Z,78.38
2018-04-11T10:32:33.878Z,79.08
2018-04-11T10:33:33.941Z,78.13
2018-04-11T10:34:34.007Z,78.13
2018-04-11T10:35:34.072Z,77.26
2018-04-11T10:36:34.138Z,77.26
2018-04-11T10:37:34.202Z,75.96
2018-04-11T10:38:34.268Z,74.43
2018-04-11T10:39:34.333Z,74.77
2018-04-11T10:40:34.397Z,74.24
2018-04-11T10:41:34.865Z,74.33
2018-04-11T10:42:34.529Z,71.98
2018-04-11T10:43:34.593Z,71.11
2018-04-11T10:44:34.728Z,71.98
2018-04-11T10:45:34.727Z,71.78
2018-04-11T10:46:34.792Z,71.69
2018-04-11T10:47:34.858Z,72.01
2018-04-11T10:48:34.972Z,71.63
2018-04-11T10:49:34.992Z,70.13
2018-04-11T10:50:35.060Z,70.35
2018-04-11T10:51:35.126Z,71.44
2018-04-11T10:52:35.195Z,72.27
2018-04-11T10:53:35.263Z,72.52
2018-04-11T10:54:35.328Z,72.80
2018-04-11T10:55:35.397Z,70.41
2018-04-11T10:56:35.466Z,69.64
2018-04-11T10:57:35.533Z,68.49
2018-04-11T10:58:35.599Z,68.21
2018-04-11T10:59:35.667Z,66.13
2018-04-11T11:00:35.734Z,66.19
2018-04-11T11:01:35.802Z,65.65
2018-04-11T11:02:35.868Z,65.33
2018-04-11T11:03:35.939Z,63.60
2018-04-11T11:04:36.003Z,59.86
2018-04-11T11:05:36.071Z,60.21
2018-04-11T11:06:36.139Z,60.75
2018-04-11T11:07:36.206Z,59.06
2018-04-11T11:08:36.274Z,61.81
2018-04-11T11:09:36.343Z,62.04
2018-04-11T11:10:36.412Z,61.84
2018-04-11T11:11:36.478Z,61.71
2018-04-11T11:12:36.545Z,60.14
2018-04-11T11:13:36.615Z,57.79
2018-04-11T11:14:36.684Z,54.64
2018-04-11T11:15:36.752Z,52.95
2018-04-11T11:16:36.820Z,54.35
2018-04-11T11:17:36.889Z,53.89
2018-04-11T11:18:36.959Z,54.02
2018-04-11T11:19:37.026Z,53.15
2018-04-11T11:20:37.097Z,52.95
2018-04-11T11:21:37.167Z,52.01
2018-04-11T11:22:37.237Z,53.22
2018-04-11T11:23:37.307Z,53.15
2018-04-11T11:24:37.379Z,51.80
2018-04-11T11:25:37.455Z,52.35
2018-04-11T11:26:37.518Z,53.03
2018-04-11T11:27:37.587Z,51.48
2018-04-11T11:28:37.658Z,52.45
2018-04-11T11:29:37.728Z,51.80
2018-04-11T11:30:37.801Z,50.84
2018-04-11T11:31:37.869Z,50.04
2018-04-11T11:32:37.942Z,50.64
2018-04-11T11:33:38.013Z,49.10
2018-04-11T11:34:38.085Z,47.96
2018-04-11T11:35:38.156Z,48.52
2018-04-11T11:36:38.227Z,48.79
2018-04-11T11:37:38.299Z,50.78
2018-04-11T11:38:38.377Z,50.04
2018-04-11T11:39:38.441Z,50.23
2018-04-11T11:40:38.512Z,49.96
2018-04-11T11:41:38.584Z,49.12
2018-04-11T11:42:38.755Z,46.75
2018-04-11T11:43:38.763Z,45.79
2018-04-11T11:44:38.843Z,46.06
2018-04-11T11:45:38.911Z,45.67
2018-04-11T11:46:39.033Z,44.17
2018-04-11T11:47:39.011Z,44.46
2018-04-11T11:48:39.083Z,45.26
2018-04-11T11:49:39.155Z,47.24
2018-04-11T11:50:39.226Z,49.73
2018-04-11T11:51:39.297Z,49.00
2018-04-11T11:52:39.370Z,49.24
2018-04-11T11:53:39.441Z,48.69
2018-04-11T11:54:39.514Z,48.25
2018-04-11T11:55:39.597Z,46.56
2018-04-11T11:56:39.657Z,45.31
2018-04-11T11:57:39.729Z,45.21
2018-04-11T11:58:39.809Z,44.75
2018-04-11T11:59:39.875Z,45.67
2018-04-11T12:00:39.949Z,45.31
2018-04-11T12:01:40.021Z,46.56
2018-04-11T12:02:40.092Z,49.65
2018-04-11T12:03:40.165Z,47.67
2018-04-11T12:04:40.237Z,47.09
2018-04-11T12:05:40.310Z,46.61
2018-04-11T12:06:40.385Z,44.43
2018-04-11T12:07:40.496Z,43.98
2018-04-11T12:08:40.528Z,43.20
2018-04-11T12:09:40.600Z,42.35
2018-04-11T12:10:40.673Z,41.50
2018-04-11T12:11:40.743Z,40.25
2018-04-11T12:12:40.817Z,41.39
2018-04-11T12:13:40.891Z,41.29
2018-04-11T12:14:40.962Z,41.60
2018-04-11T12:15:41.034Z,40.36
2018-04-11T12:16:41.123Z,39.41
2018-04-11T12:17:41.178Z,38.91
2018-04-11T12:18:41.253Z,39.20
2018-04-11T12:19:41.358Z,38.81
2018-04-11T12:20:41.399Z,38.91
2018-04-11T12:21:41.473Z,39.20
2018-04-11T12:22:41.544Z,38.15
2018-04-11T12:23:41.620Z,37.19
2018-04-11T12:24:41.689Z,37.92
2018-04-11T12:25:42.177Z,40.09
2018-04-11T12:26:41.838Z,42.00
2018-04-11T12:27:41.913Z,42.31
2018-04-11T12:28:42.001Z,42.02
2018-04-11T12:29:42.063Z,42.66
2018-04-11T12:30:42.149Z,42.33
2018-04-11T12:31:42.205Z,41.41
2018-04-11T12:32:42.279Z,40.15
2018-04-11T12:33:42.353Z,40.53
2018-04-11T12:34:42.428Z,40.78
2018-04-11T12:35:42.501Z,41.44
2018-04-11T12:36:42.576Z,42.12
2018-04-11T12:37:42.650Z,41.48
2018-04-11T12:38:42.725Z,39.49
2018-04-11T12:39:43.636Z,40.30
2018-04-11T12:40:42.873Z,40.13
2018-04-11T12:41:42.946Z,41.93
2018-04-11T12:42:43.023Z,43.93
2018-04-11T12:43:43.095Z,43.49
2018-04-11T12:44:43.171Z,41.70
2018-04-11T12:45:43.244Z,40.46
2018-04-11T12:46:43.323Z,40.56
2018-04-11T12:47:43.395Z,39.39
2018-04-11T12:48:43.481Z,40.63
2018-04-11T12:49:43.544Z,41.67
2018-04-11T12:50:43.618Z,42.33
2018-04-11T12:51:43.693Z,41.35
2018-04-11T12:52:43.767Z,40.53
2018-04-11T12:53:43.841Z,41.91